Time;durP1;ratioP1;P1;durP2;ratioP2;P2;SDS_P1;SDS_P2;PMS_P1;PMS_P2;Temp;Humidity;BMP_temperature;BMP_pressure;BME280_temperature;BME280_humidity;BME280_pressure;Samples;Min_cycle;Max_cycle;Signal;HPM_P1;HPM_P2
2023/06/13 00:02:41;;;;;;;3.50;1.92;;;26.20;48.20;;;;;;7402052;19;19922;-59
2023/06/13 00:05:31;;;;;;;4.90;2.03;;;26.10;48.30;;;;;;7401156;19;19929;-59
2023/06/13 00:08:02;;;;;;;3.58;2.33;;;26.10;48.30;;;;;;7402819;19;19943;-58
2023/06/13 00:10:31;;;;;;;3.00;1.95;;;26.10;48.50;;;;;;7400687;19;19943;-59
2023/06/13 00:13:01;;;;;;;2.88;1.95;;;26.10;48.60;;;;;;7404115;19;19926;-59
2023/06/13 00:15:35;;;;;;;3.60;2.05;;;26.00;48.60;;;;;;7403860;19;20362;-59
2023/06/13 00:18:05;;;;;;;4.28;1.65;;;26.00;48.70;;;;;;7403053;19;19936;-58
2023/06/13 00:20:36;;;;;;;5.10;2.22;;;26.00;48.80;;;;;;7404905;19;20352;-59
2023/06/13 00:23:06;;;;;;;3.40;1.73;;;26.00;48.80;;;;;;7403980;19;19919;-60
2023/06/13 00:25:42;;;;;;;4.10;2.42;;;26.00;48.90;;;;;;7402411;19;20332;-64
2023/06/13 00:28:12;;;;;;;3.75;1.92;;;26.00;49.00;;;;;;7401633;19;20324;-59
2023/06/13 00:30:45;;;;;;;3.25;1.88;;;26.00;49.10;;;;;;7401687;19;19926;-58
2023/06/13 00:33:20;;;;;;;3.45;2.00;;;26.00;49.20;;;;;;7402619;19;20357;-59
2023/06/13 00:35:50;;;;;;;4.10;1.77;;;26.00;49.30;;;;;;7400338;19;19926;-59
2023/06/13 00:38:23;;;;;;;5.85;1.92;;;25.90;49.20;;;;;;7402073;19;20358;-58
2023/06/13 00:40:53;;;;;;;4.10;1.98;;;25.90;49.30;;;;;;7402812;19;20396;-59
2023/06/13 00:43:23;;;;;;;3.58;2.00;;;25.90;49.40;;;;;;7401728;19;20255;-62
2023/06/13 00:45:54;;;;;;;3.47;1.60;;;25.80;49.40;;;;;;7402536;19;19982;-59
2023/06/13 00:48:24;;;;;;;4.13;1.92;;;25.90;49.70;;;;;;7402396;19;20274;-60
2023/06/13 00:50:54;;;;;;;;;;;25.80;49.60;;;;;;7404655;19;19935;-59
2023/06/13 00:53:29;;;;;;;3.75;2.00;;;25.80;49.70;;;;;;7403292;19;19922;-59
2023/06/13 00:55:59;;;;;;;3.33;1.77;;;25.80;49.90;;;;;;7403118;19;19930;-56
2023/06/13 00:58:28;;;;;;;3.80;2.03;;;25.70;49.80;;;;;;7402367;19;19918;-57
2023/06/13 01:01:02;;;;;;;4.00;2.17;;;25.70;49.90;;;;;;7400465;19;20002;-57
2023/06/13 01:03:36;;;;;;;2.85;1.50;;;25.70;50.00;;;;;;7397334;19;19925;-58
2023/06/13 01:06:06;;;;;;;3.15;1.88;;;25.70;50.10;;;;;;7400318;19;19918;-58
2023/06/13 01:08:37;;;;;;;;;;;25.70;50.20;;;;;;7405110;19;19930;-58
2023/06/13 01:11:35;;;;;;;3.05;1.45;;;25.70;50.20;;;;;;7402484;19;20237;-58
2023/06/13 01:14:14;;;;;;;3.38;1.80;;;25.60;50.20;;;;;;7399760;19;20355;-58
2023/06/13 01:16:54;;;;;;;2.88;1.90;;;25.60;50.40;;;;;;7402615;19;19935;-58
2023/06/13 01:19:33;;;;;;;3.30;1.63;;;25.60;50.30;;;;;;7400917;19;19926;-58
2023/06/13 01:22:02;;;;;;;3.92;2.22;;;25.60;50.40;;;;;;7400587;19;19949;-58
2023/06/13 01:24:41;;;;;;;3.88;1.77;;;25.60;50.50;;;;;;7402355;19;19922;-58
2023/06/13 01:27:14;;;;;;;4.53;2.15;;;25.60;50.60;;;;;;7401588;19;19992;-58
2023/06/13 01:29:44;;;;;;;4.03;2.20;;;25.50;50.60;;;;;;7401659;19;19982;-58
2023/06/13 01:32:14;;;;;;;2.67;1.30;;;25.50;50.60;;;;;;7400350;19;19975;-58
2023/06/13 01:34:45;;;;;;;3.47;1.67;;;25.50;50.70;;;;;;7402080;19;19922;-59
2023/06/13 01:37:14;;;;;;;2.72;1.75;;;25.50;50.80;;;;;;7400174;19;19926;-58
2023/06/13 01:39:44;;;;;;;;;;;25.50;50.90;;;;;;7404553;19;19926;-58
2023/06/13 01:42:35;;;;;;;3.60;2.08;;;25.50;51.00;;;;;;7402373;19;20325;-58
2023/06/13 01:45:05;;;;;;;3.45;1.42;;;25.40;51.00;;;;;;7400712;19;20269;-58
2023/06/13 01:47:41;;;;;;;4.00;1.85;;;25.40;51.20;;;;;;7401269;19;19918;-58
2023/06/13 01:50:30;;;;;;;3.75;1.40;;;25.40;51.10;;;;;;7400779;19;20367;-58
2023/06/13 01:53:21;;;;;;;3.47;2.25;;;25.40;51.20;;;;;;7400966;19;19933;-59
2023/06/13 01:55:55;;;;;;;;;;;25.40;51.30;;;;;;7403488;19;20339;-58
2023/06/13 01:58:36;;;;;;;2.60;1.33;;;25.30;51.20;;;;;;7400210;19;20264;-58
2023/06/13 02:01:08;;;;;;;2.65;1.25;;;25.30;51.30;;;;;;7399708;19;19930;-58
2023/06/13 02:03:38;;;;;;;2.75;1.63;;;25.30;51.40;;;;;;7398041;19;19948;-58
2023/06/13 02:06:28;;;;;;;2.80;1.80;;;25.30;51.40;;;;;;7403364;19;19919;-58
2023/06/13 02:08:57;;;;;;;;;;;25.30;51.50;;;;;;7418509;19;20006;-58
2023/06/13 02:11:27;;;;;;;2.97;2.10;;;25.30;51.50;;;;;;7415953;19;20358;-58
2023/06/13 02:14:03;;;;;;;2.50;1.52;;;25.30;51.60;;;;;;7414342;19;20387;-57
2023/06/13 02:16:32;;;;;;;2.83;2.20;;;25.30;51.70;;;;;;7412573;19;20339;-58
2023/06/13 02:19:01;;;;;;;;;;;25.20;51.60;;;;;;7416454;19;19999;-59
2023/06/13 02:21:32;;;;;;;2.65;1.65;;;25.20;51.70;;;;;;7413906;19;19918;-59
2023/06/13 02:24:01;;;;;;;3.25;1.63;;;25.20;51.80;;;;;;7416127;19;19950;-59
2023/06/13 02:26:31;;;;;;;4.18;2.22;;;25.10;51.70;;;;;;7410804;19;19914;-58
2023/06/13 02:29:03;;;;;;;3.13;1.70;;;25.10;51.90;;;;;;7416300;19;20305;-58
2023/06/13 02:31:35;;;;;;;2.83;1.52;;;25.10;51.90;;;;;;7414207;19;19932;-58
2023/06/13 02:34:05;;;;;;;3.08;1.63;;;25.10;52.00;;;;;;7413533;19;19948;-62
2023/06/13 02:36:34;;;;;;;2.33;1.38;;;25.10;52.10;;;;;;7415410;19;19922;-58
2023/06/13 02:39:03;;;;;;;3.15;1.83;;;25.10;52.10;;;;;;7410362;19;19932;-58
2023/06/13 02:41:45;;;;;;;3.38;2.58;;;25.10;52.20;;;;;;7415328;19;19922;-59
2023/06/13 02:44:24;;;;;;;3.28;1.35;;;25.10;52.20;;;;;;7413246;19;20261;-58
2023/06/13 02:46:53;;;;;;;4.10;2.22;;;25.00;52.20;;;;;;7412871;19;19929;-57
2023/06/13 02:49:22;;;;;;;2.97;1.75;;;25.00;52.20;;;;;;7412401;19;20362;-60
2023/06/13 02:51:51;;;;;;;3.08;1.88;;;25.00;52.20;;;;;;7412421;19;19959;-61
2023/06/13 02:54:21;;;;;;;3.47;1.63;;;25.00;52.30;;;;;;7413776;19;19926;-58
2023/06/13 02:56:50;;;;;;;3.03;2.17;;;25.00;52.40;;;;;;7413998;19;19934;-58
2023/06/13 02:59:26;;;;;;;2.67;1.42;;;25.00;52.40;;;;;;7412375;19;19946;-58
2023/06/13 03:01:56;;;;;;;3.10;1.52;;;24.90;52.40;;;;;;7412124;19;19963;-59
2023/06/13 03:04:28;;;;;;;2.53;1.23;;;25.00;52.50;;;;;;7412929;19;19974;-58
2023/06/13 03:06:57;;;;;;;2.85;1.63;;;24.90;52.60;;;;;;7412036;19;19911;-59
2023/06/13 03:09:26;;;;;;;2.72;1.70;;;24.90;52.60;;;;;;7414297;19;20578;-58
2023/06/13 03:11:56;;;;;;;3.50;1.83;;;24.90;52.70;;;;;;7412863;19;20357;-58
2023/06/13 03:14:28;;;;;;;3.58;1.88;;;24.90;52.70;;;;;;7413013;19;19940;-58
2023/06/13 03:16:59;;;;;;;2.67;1.48;;;24.90;52.70;;;;;;7413535;19;19974;-58
2023/06/13 03:19:28;;;;;;;3.20;1.60;;;24.90;52.80;;;;;;7404182;19;20400;-59
2023/06/13 03:21:58;;;;;;;3.08;1.73;;;24.90;52.90;;;;;;7407226;19;20294;-57
2023/06/13 03:24:28;;;;;;;2.83;1.55;;;24.90;52.90;;;;;;7404237;19;19932;-58
2023/06/13 03:26:57;;;;;;;2.42;1.42;;;24.80;52.90;;;;;;7399902;19;19955;-57
2023/06/13 03:29:29;;;;;;;3.45;2.65;;;24.80;52.90;;;;;;7402763;19;19978;-57
2023/06/13 03:31:58;;;;;;;2.88;1.77;;;24.80;53.00;;;;;;7404195;19;19922;-57
2023/06/13 03:34:28;;;;;;;2.85;1.80;;;24.80;53.00;;;;;;7405441;19;19923;-57
2023/06/13 03:37:03;;;;;;;2.28;1.25;;;24.70;53.00;;;;;;7403166;19;20100;-57
2023/06/13 03:39:42;;;;;;;3.35;2.10;;;24.80;53.10;;;;;;7401849;19;19930;-57
2023/06/13 03:42:11;;;;;;;2.45;1.35;;;24.70;53.10;;;;;;7405697;19;19963;-57
2023/06/13 03:44:46;;;;;;;2.15;1.10;;;24.70;53.10;;;;;;7404842;19;19931;-57
2023/06/13 03:47:16;;;;;;;;;;;24.70;53.20;;;;;;7407550;19;20286;-58
2023/06/13 03:49:45;;;;;;;2.47;1.52;;;24.70;53.20;;;;;;7405220;19;19927;-58
2023/06/13 03:52:20;;;;;;;3.28;1.80;;;24.70;53.30;;;;;;7404141;19;19929;-58
2023/06/13 03:54:51;;;;;;;3.33;1.73;;;24.70;53.40;;;;;;7403654;19;19926;-58
2023/06/13 03:57:30;;;;;;;2.95;1.60;;;24.70;53.40;;;;;;7406980;19;20008;-58
2023/06/13 04:00:04;;;;;;;2.58;1.48;;;24.70;53.40;;;;;;7403488;19;19927;-58
2023/06/13 04:02:35;;;;;;;2.90;1.42;;;24.70;53.40;;;;;;7403256;19;19971;-58
2023/06/13 04:05:06;;;;;;;2.78;1.40;;;24.70;53.50;;;;;;7404070;19;19951;-58
2023/06/13 04:07:36;;;;;;;2.83;1.60;;;24.70;53.50;;;;;;7399760;19;19921;-58
2023/06/13 04:10:06;;;;;;;2.50;1.42;;;24.60;53.50;;;;;;7405735;19;20515;-59
2023/06/13 04:12:36;;;;;;;2.42;1.45;;;24.60;53.50;;;;;;7403925;19;19952;-58
2023/06/13 04:15:11;;;;;;;2.55;1.77;;;24.60;53.50;;;;;;7403157;19;19918;-59
2023/06/13 04:17:40;;;;;;;3.63;1.90;;;24.60;53.60;;;;;;7403152;19;19922;-58
2023/06/13 04:20:10;;;;;;;2.55;1.55;;;24.60;53.60;;;;;;7404325;19;19930;-58
2023/06/13 04:22:41;;;;;;;2.33;1.17;;;24.60;54.40;;;;;;7403589;19;20052;-58
2023/06/13 04:25:12;;;;;;;2.70;1.63;;;24.60;53.70;;;;;;7400505;19;19923;-57
2023/06/13 04:27:43;;;;;;;2.55;1.42;;;24.50;53.70;;;;;;7402444;19;19978;-58
2023/06/13 04:30:15;;;;;;;2.78;1.45;;;24.50;53.70;;;;;;7401893;19;20005;-58
2023/06/13 04:32:45;;;;;;;2.95;1.88;;;24.50;53.80;;;;;;7403424;19;19922;-58
2023/06/13 04:35:17;;;;;;;2.25;1.45;;;24.50;53.90;;;;;;7404281;19;19929;-58
2023/06/13 04:37:48;;;;;;;2.80;1.85;;;24.50;53.80;;;;;;7403072;19;19919;-58
2023/06/13 04:40:18;;;;;;;2.20;1.15;;;24.50;53.80;;;;;;7403023;19;19957;-57
2023/06/13 04:42:52;;;;;;;2.45;1.45;;;24.50;53.80;;;;;;7401394;19;19918;-58
2023/06/13 04:45:25;;;;;;;2.30;1.40;;;24.50;54.50;;;;;;7403335;19;19922;-57
2023/06/13 04:47:57;;;;;;;3.00;1.45;;;24.50;53.90;;;;;;7401826;19;19926;-59
2023/06/13 04:50:26;;;;;;;3.00;1.70;;;24.50;53.90;;;;;;7401521;19;20270;-57
2023/06/13 04:52:55;;;;;;;2.47;1.25;;;24.50;53.90;;;;;;7403514;19;19939;-57
2023/06/13 04:55:25;;;;;;;2.47;1.45;;;24.50;53.90;;;;;;7400701;19;19918;-57
2023/06/13 04:57:54;;;;;;;2.45;1.35;;;24.50;54.00;;;;;;7404044;19;19923;-57
2023/06/13 05:00:26;;;;;;;2.70;1.50;;;24.50;54.00;;;;;;7397699;19;19922;-62
2023/06/13 05:02:56;;;;;;;2.53;1.42;;;24.50;54.00;;;;;;7400215;19;19926;-59
2023/06/13 05:05:26;;;;;;;2.55;1.77;;;24.50;54.10;;;;;;7402216;19;20320;-59
2023/06/13 05:07:55;;;;;;;3.95;1.33;;;24.50;54.10;;;;;;7401632;19;19926;-58
2023/06/13 05:10:26;;;;;;;2.65;1.60;;;24.50;54.00;;;;;;7396462;19;19930;-59
2023/06/13 05:12:55;;;;;;;4.10;1.50;;;24.50;54.10;;;;;;7403567;19;19926;-59
2023/06/13 05:15:27;;;;;;;2.45;1.55;;;24.50;54.10;;;;;;7400646;19;20370;-59
2023/06/13 05:17:56;;;;;;;2.67;1.45;;;24.50;54.10;;;;;;7404127;19;19950;-58
2023/06/13 05:20:26;;;;;;;2.88;1.60;;;24.50;54.10;;;;;;7402871;19;20014;-59
2023/06/13 05:22:56;;;;;;;2.83;1.80;;;24.50;54.20;;;;;;7403710;19;19922;-59
2023/06/13 05:25:24;;;;;;;;;;;24.50;54.30;;;;;;7404158;19;19930;-58
2023/06/13 05:27:53;;;;;;;3.78;1.45;;;24.50;54.10;;;;;;7403782;19;19922;-59
2023/06/13 05:30:23;;;;;;;3.17;1.42;;;24.50;54.20;;;;;;7402127;19;20297;-58
2023/06/13 05:32:56;;;;;;;2.95;1.20;;;24.50;54.20;;;;;;7403588;19;19939;-58
2023/06/13 05:35:25;;;;;;;2.53;1.65;;;24.50;54.20;;;;;;7404592;19;19930;-58
2023/06/13 05:37:54;;;;;;;3.30;1.55;;;24.50;54.20;;;;;;7403868;19;20270;-58
2023/06/13 05:40:23;;;;;;;2.70;1.50;;;24.50;54.20;;;;;;7400359;19;19947;-58
2023/06/13 05:42:52;;;;;;;2.97;1.88;;;24.50;54.20;;;;;;7400914;19;19918;-58
2023/06/13 05:45:22;;;;;;;2.40;1.40;;;24.50;54.30;;;;;;7403378;19;19922;-58
2023/06/13 05:47:51;;;;;;;2.33;1.52;;;24.50;54.30;;;;;;7402075;19;19958;-58
2023/06/13 05:50:23;;;;;;;2.35;1.35;;;24.50;54.30;;;;;;7402200;19;19922;-58
2023/06/13 05:52:52;;;;;;;2.45;1.13;;;24.50;54.30;;;;;;7402742;19;19923;-58
2023/06/13 05:55:21;;;;;;;2.00;1.17;;;24.50;54.40;;;;;;7401566;19;19952;-58
2023/06/13 05:57:51;;;;;;;2.92;1.42;;;24.50;54.40;;;;;;7402732;19;20376;-58
2023/06/13 06:00:22;;;;;;;2.80;1.50;;;24.50;54.30;;;;;;7401291;19;19994;-58
2023/06/13 06:02:52;;;;;;;2.30;1.38;;;24.50;54.40;;;;;;7401757;19;19918;-58
2023/06/13 06:05:25;;;;;;;2.55;1.60;;;24.50;54.40;;;;;;7401085;19;19919;-58
2023/06/13 06:07:54;;;;;;;2.05;1.25;;;24.60;54.70;;;;;;7401298;19;19922;-58
2023/06/13 06:10:23;;;;;;;2.85;1.17;;;24.60;54.40;;;;;;7402373;19;19921;-58
2023/06/13 06:12:52;;;;;;;2.25;1.38;;;24.60;54.50;;;;;;7403043;19;19922;-58
2023/06/13 06:15:21;;;;;;;2.45;1.27;;;24.60;54.50;;;;;;7401438;19;19922;-59
2023/06/13 06:17:50;;;;;;;2.58;1.27;;;24.60;54.50;;;;;;7399305;19;19922;-58
2023/06/13 06:20:20;;;;;;;4.15;1.90;;;24.60;54.50;;;;;;7399574;19;19929;-58
2023/06/13 06:22:51;;;;;;;2.42;1.85;;;24.60;51.70;;;;;;7399391;19;20430;-58
2023/06/13 06:25:21;;;;;;;4.32;2.50;;;24.50;49.80;;;;;;7399722;19;20484;-58
2023/06/13 06:27:51;;;;;;;4.60;2.45;;;24.50;47.80;;;;;;7400637;19;20342;-58
2023/06/13 06:30:20;;;;;;;;;;;24.40;47.10;;;;;;7403826;19;19922;-58
2023/06/13 06:32:49;;;;;;;5.35;2.03;;;24.20;47.70;;;;;;7401726;19;19926;-58
2023/06/13 06:35:19;;;;;;;4.32;1.65;;;24.20;47.90;;;;;;7400159;19;19938;-57
2023/06/13 06:37:50;;;;;;;9.25;1.50;;;24.10;47.90;;;;;;7399023;19;19914;-58
2023/06/13 06:40:20;;;;;;;4.13;1.63;;;24.10;47.50;;;;;;7397158;19;19926;-58
2023/06/13 06:42:50;;;;;;;3.90;1.90;;;24.00;47.90;;;;;;7400942;19;19946;-58
2023/06/13 06:45:19;;;;;;;3.08;1.92;;;24.00;47.70;;;;;;7400129;19;19922;-58
2023/06/13 06:47:49;;;;;;;2.85;1.50;;;24.00;47.30;;;;;;7402172;19;20359;-58
2023/06/13 06:50:30;;;;;;;5.15;1.67;;;23.90;47.90;;;;;;7401875;19;19922;-58
2023/06/13 06:53:21;;;;;;;3.25;1.67;;;24.00;48.30;;;;;;7403330;19;19922;-58
2023/06/13 06:56:10;;;;;;;6.25;1.92;;;24.00;48.30;;;;;;7404653;19;19922;-58
2023/06/13 06:58:59;;;;;;;6.70;2.20;;;24.00;48.40;;;;;;7406575;19;19930;-59
2023/06/13 07:01:50;;;;;;;5.25;1.90;;;24.00;48.20;;;;;;7402678;19;20271;-58
2023/06/13 07:04:39;;;;;;;4.10;1.67;;;24.00;48.00;;;;;;7407145;19;20356;-57
2023/06/13 07:07:10;;;;;;;3.92;1.55;;;24.00;47.90;;;;;;7403237;19;19927;-58
2023/06/13 07:09:42;;;;;;;5.97;1.55;;;24.00;47.80;;;;;;7407173;19;20328;-58
2023/06/13 07:12:28;;;;;;;4.03;1.55;;;24.00;47.80;;;;;;7406052;19;20484;-58
2023/06/13 07:14:57;;;;;;;6.40;1.42;;;24.10;47.60;;;;;;7402634;19;19943;-58
2023/06/13 07:17:34;;;;;;;5.13;1.52;;;24.10;47.40;;;;;;7407224;19;19923;-58
2023/06/13 07:20:13;;;;;;;3.00;1.15;;;24.10;47.40;;;;;;7403872;19;20321;-58
2023/06/13 07:22:43;;;;;;;5.05;1.45;;;24.10;47.00;;;;;;7405151;19;19923;-57
2023/06/13 07:25:14;;;;;;;3.80;1.75;;;24.10;47.10;;;;;;7405221;19;19929;-49
2023/06/13 07:27:45;;;;;;;4.78;1.58;;;24.20;47.30;;;;;;7403953;19;20281;-49
2023/06/13 07:30:16;;;;;;;3.38;1.55;;;24.10;46.40;;;;;;7401313;19;20411;-51
2023/06/13 07:32:45;;;;;;;5.15;2.03;;;24.10;46.70;;;;;;7402714;19;19930;-54
2023/06/13 07:35:16;;;;;;;4.40;1.65;;;24.00;45.70;;;;;;7403069;19;19974;-53
2023/06/13 07:37:45;;;;;;;3.42;1.60;;;24.00;45.40;;;;;;7400819;19;19927;-52
2023/06/13 07:40:18;;;;;;;3.60;2.10;;;24.10;45.20;;;;;;7404695;19;19982;-48
2023/06/13 07:42:47;;;;;;;4.43;1.40;;;24.10;45.10;;;;;;7403396;19;20268;-48
2023/06/13 07:45:16;;;;;;;3.85;1.50;;;24.20;45.00;;;;;;7398280;19;20319;-50
2023/06/13 07:47:45;;;;;;;2.95;1.85;;;24.20;45.10;;;;;;7400082;19;19946;-53
2023/06/13 07:50:17;;;;;;;3.30;1.30;;;24.20;44.90;;;;;;7404344;19;20003;-50
2023/06/13 07:52:46;;;;;;;3.75;1.80;;;24.10;44.90;;;;;;7405083;19;19982;-53
2023/06/13 07:55:18;;;;;;;2.40;1.48;;;24.10;44.50;;;;;;7403452;19;19932;-49
2023/06/13 07:57:47;;;;;;;4.20;1.45;;;24.20;44.80;;;;;;7404875;19;19922;-52
2023/06/13 08:00:18;;;;;;;2.72;1.35;;;24.20;44.60;;;;;;7404154;19;19985;-54
2023/06/13 08:02:50;;;;;;;4.75;1.63;;;24.20;44.80;;;;;;7402124;19;19929;-53
2023/06/13 08:05:20;;;;;;;3.83;1.48;;;24.20;44.50;;;;;;7397955;19;19982;-54
2023/06/13 08:07:50;;;;;;;3.22;1.50;;;24.20;44.90;;;;;;7401065;19;19918;-49
2023/06/13 08:10:22;;;;;;;4.20;1.67;;;24.20;44.90;;;;;;7403967;19;20411;-53
2023/06/13 08:12:52;;;;;;;3.75;1.45;;;24.30;45.10;;;;;;7401989;19;20344;-54
2023/06/13 08:15:21;;;;;;;7.50;1.95;;;24.30;45.30;;;;;;7402035;19;20349;-53
2023/06/13 08:17:51;;;;;;;4.13;1.48;;;24.30;45.00;;;;;;7399571;19;19926;-52
2023/06/13 08:20:20;;;;;;;6.47;1.75;;;24.30;45.20;;;;;;7406269;19;19926;-50
2023/06/13 08:22:50;;;;;;;4.43;1.50;;;24.30;45.30;;;;;;7405439;19;19919;-52
2023/06/13 08:25:21;;;;;;;3.78;1.67;;;24.40;45.10;;;;;;7405397;19;19923;-53
2023/06/13 08:27:52;;;;;;;2.60;1.67;;;24.40;45.00;;;;;;7373238;19;19930;-50
2023/06/13 08:30:21;;;;;;;3.50;1.58;;;24.40;45.20;;;;;;7290075;19;199078;-53
2023/06/13 08:32:52;;;;;;;3.13;1.35;;;24.40;45.20;;;;;;7403516;19;19919;-50
2023/06/13 08:35:21;;;;;;;3.72;1.83;;;24.50;45.40;;;;;;7404813;19;19926;-50
2023/06/13 08:37:50;;;;;;;7.68;2.05;;;24.50;45.50;;;;;;7403415;19;19939;-50
2023/06/13 08:40:22;;;;;;;3.58;1.90;;;24.50;45.60;;;;;;7402386;19;19926;-49
2023/06/13 08:42:52;;;;;;;5.10;1.58;;;24.50;45.80;;;;;;7359091;19;19919;-54
2023/06/13 08:45:21;;;;;;;2.92;1.65;;;24.60;46.20;;;;;;7402685;19;19985;-50
2023/06/13 08:47:50;;;;;;;6.25;2.05;;;24.60;46.50;;;;;;7403593;19;19926;-55
2023/06/13 08:50:24;;;;;;;4.32;2.05;;;24.60;46.70;;;;;;7403142;19;19922;-51
2023/06/13 08:52:54;;;;;;;4.28;1.55;;;24.60;46.40;;;;;;7401189;19;19921;-50
2023/06/13 08:55:30;;;;;;;5.70;2.35;;;24.60;46.50;;;;;;7402389;19;20293;-51
2023/06/13 08:58:03;;;;;;;5.82;2.30;;;24.70;47.00;;;;;;7400778;19;19934;-49
2023/06/13 09:00:35;;;;;;;5.40;1.83;;;24.70;46.80;;;;;;7404342;19;19948;-49
2023/06/13 09:03:06;;;;;;;5.07;1.88;;;24.70;45.90;;;;;;7403226;19;19926;-51
2023/06/13 09:05:35;;;;;;;3.53;1.63;;;24.80;46.30;;;;;;7404214;19;19926;-49
2023/06/13 09:08:07;;;;;;;4.82;1.63;;;24.80;46.10;;;;;;7403856;19;19918;-52
2023/06/13 09:10:39;;;;;;;5.50;2.10;;;24.80;45.90;;;;;;7400427;19;19939;-52
2023/06/13 09:13:12;;;;;;;3.28;1.80;;;24.90;45.90;;;;;;7399951;19;19997;-48
2023/06/13 09:15:42;;;;;;;3.17;1.95;;;24.90;46.00;;;;;;7403016;19;20376;-48
2023/06/13 09:18:12;;;;;;;2.88;1.48;;;25.00;46.10;;;;;;7402863;19;19973;-50
2023/06/13 09:20:40;;;;;;;;;;;25.00;46.40;;;;;;7401041;19;19956;-50
2023/06/13 09:23:10;;;;;;;6.72;1.88;;;25.00;46.30;;;;;;7402015;19;19993;-49
2023/06/13 09:25:44;;;;;;;3.10;1.70;;;25.00;46.30;;;;;;7401348;19;19951;-50
2023/06/13 09:28:31;;;;;;;3.47;1.45;;;25.10;46.50;;;;;;7401440;19;19947;-48
2023/06/13 09:31:01;;;;;;;3.75;1.60;;;25.10;46.50;;;;;;7398923;19;20344;-53
2023/06/13 09:33:30;;;;;;;;;;;25.10;46.50;;;;;;7402291;19;20324;-48
2023/06/13 09:35:59;;;;;;;4.32;1.77;;;25.10;46.70;;;;;;7401747;19;19922;-48
2023/06/13 09:38:28;;;;;;;6.28;1.88;;;25.20;46.80;;;;;;7398976;19;19943;-65
2023/06/13 09:43:54;;;;;;;3.75;1.77;;;25.20;47.40;;;;;;7432457;19;20357;-76
2023/06/13 09:46:26;;;;;;;3.55;2.75;;;25.20;46.80;;;;;;7434846;19;19925;-78
2023/06/13 09:48:55;;;;;;;5.07;3.05;;;25.10;47.20;;;;;;7432676;19;19922;-77
2023/06/13 09:51:24;;;;;;;3.85;1.75;;;24.90;46.90;;;;;;7433622;19;20367;-78
2023/06/13 09:53:55;;;;;;;6.65;2.83;;;24.80;47.10;;;;;;7434207;19;19939;-80
2023/06/13 09:56:26;;;;;;;4.38;1.80;;;24.70;47.70;;;;;;7435442;19;19941;-77
2023/06/13 09:58:57;;;;;;;5.05;2.10;;;24.70;47.30;;;;;;7430450;19;19930;-78
2023/06/13 10:01:27;;;;;;;3.03;1.67;;;24.70;47.30;;;;;;7433372;19;19911;-77
2023/06/13 10:03:56;;;;;;;5.25;3.20;;;24.70;47.30;;;;;;7434124;19;19923;-77
2023/06/13 10:06:25;;;;;;;5.70;3.15;;;24.70;46.40;;;;;;7432398;19;19919;-77
2023/06/13 10:08:55;;;;;;;8.05;3.13;;;24.80;47.20;;;;;;7432448;19;19919;-76
2023/06/13 10:11:26;;;;;;;3.75;2.03;;;24.80;47.40;;;;;;7434472;19;20388;-76
2023/06/13 10:14:05;;;;;;;5.03;3.08;;;24.90;47.20;;;;;;7434339;19;19923;-76
2023/06/13 10:16:39;;;;;;;3.55;2.47;;;24.90;45.50;;;;;;7436184;19;20373;-75
2023/06/13 10:19:11;;;;;;;4.45;2.10;;;25.00;44.10;;;;;;7434089;19;19922;-76
2023/06/13 10:21:41;;;;;;;3.88;1.50;;;25.10;45.70;;;;;;7434461;19;19982;-74
2023/06/13 10:24:09;;;;;;;;;;;25.10;47.20;;;;;;7429879;19;19918;-76
2023/06/13 10:26:43;;;;;;;4.53;3.42;;;25.20;48.70;;;;;;7433696;19;19922;-78
2023/06/13 10:29:57;;;;;;;5.38;2.00;;;25.30;47.80;;;;;;7433924;19;20333;-78
2023/06/13 10:32:55;;;;;;;4.28;1.50;;;25.30;48.10;;;;;;6661152;19;15037166;-81
2023/06/13 10:35:56;;;;;;;7.20;1.70;;;25.40;48.50;;;;;;7430401;19;20571;-76
2023/06/13 10:38:55;;;;;;;4.72;1.55;;;25.50;48.00;;;;;;7413179;19;19919;-76
2023/06/13 10:41:40;;;;;;;3.70;2.97;;;25.50;46.90;;;;;;7435056;19;20341;-76
2023/06/13 10:44:16;;;;;;;7.88;2.70;;;25.60;47.40;;;;;;7435557;19;20356;-76
2023/06/13 10:46:47;;;;;;;5.43;2.95;;;25.70;47.20;;;;;;7429354;19;19918;-77
2023/06/13 10:49:21;;;;;;;3.72;2.90;;;25.70;46.20;;;;;;7432250;19;19934;-79
2023/06/13 10:51:50;;;;;;;3.90;2.13;;;25.80;45.40;;;;;;7286486;19;20023;-79
2023/06/13 10:54:19;;;;;;;4.40;1.55;;;25.90;45.40;;;;;;7411496;19;19923;-78
2023/06/13 10:56:48;;;;;;;3.85;3.20;;;26.00;45.10;;;;;;7315301;19;20016;-80
2023/06/13 11:01:35;;;;;;;5.53;3.17;;;26.10;43.60;;;;;;7233279;19;3026304;-59
2023/06/13 11:04:13;;;;;;;5.55;2.22;;;26.10;44.10;;;;;;7411075;19;19942;-59
2023/06/13 11:06:44;;;;;;;6.78;2.88;;;26.10;44.40;;;;;;7436237;19;19918;-60
2023/06/13 11:09:21;;;;;;;3.78;2.45;;;26.10;44.50;;;;;;7435309;19;19926;-61
2023/06/13 11:11:52;;;;;;;4.70;2.55;;;26.10;44.30;;;;;;7435404;19;19992;-61
2023/06/13 11:14:26;;;;;;;4.45;2.95;;;26.10;44.30;;;;;;7435232;19;20365;-62
2023/06/13 11:16:58;;;;;;;3.60;1.73;;;26.10;43.90;;;;;;7435242;19;19922;-63
2023/06/13 11:19:28;;;;;;;4.25;2.20;;;26.10;43.90;;;;;;7436126;19;20089;-62
2023/06/13 11:22:14;;;;;;;3.90;2.28;;;26.10;44.10;;;;;;7433134;19;20359;-60
2023/06/13 11:24:44;;;;;;;4.28;2.75;;;26.10;43.90;;;;;;7397323;19;19938;-78
2023/06/13 11:27:16;;;;;;;7.65;3.35;;;26.20;44.60;;;;;;7436676;19;20328;-78
2023/06/13 11:29:46;;;;;;;3.95;2.78;;;26.40;44.30;;;;;;7431947;19;19918;-77
2023/06/13 11:32:18;;;;;;;3.60;2.58;;;26.70;43.90;;;;;;7430029;19;20308;-77
2023/06/13 11:34:52;;;;;;;6.05;1.80;;;26.90;43.30;;;;;;7369746;19;19982;-77
2023/06/13 11:37:31;;;;;;;4.32;1.92;;;27.00;42.80;;;;;;7433271;19;19941;-78
2023/06/13 11:40:03;;;;;;;4.95;2.88;;;27.20;42.50;;;;;;7423422;19;20351;-61
2023/06/13 11:46:27;;;;;;;4.67;1.40;;;27.00;42.50;;;;;;7350144;19;511672;-64
2023/06/13 11:49:54;;;;;;;4.82;2.75;;;26.80;42.70;;;;;;7436711;19;19928;-64
2023/06/13 11:52:44;;;;;;;5.55;2.72;;;26.70;42.80;;;;;;7438802;19;19926;-65
2023/06/13 11:58:16;;;;;;;4.20;3.13;;;26.60;41.70;;;;;;7440908;19;20342;-63
2023/06/13 12:00:59;;;;;;;2.67;1.58;;;26.50;42.60;;;;;;7433175;19;19932;-62
2023/06/13 12:03:32;;;;;;;3.80;1.92;;;26.50;42.70;;;;;;7436547;19;19922;-62
2023/06/13 12:06:38;;;;;;;2.65;1.25;;;26.50;43.10;;;;;;7431817;19;19914;-64
2023/06/13 12:13:40;;;;;;;3.75;2.83;;;26.50;43.10;;;;;;7407438;19;20405;-66
2023/06/13 12:16:21;;;;;;;4.18;2.53;;;26.50;43.10;;;;;;7406974;19;19950;-64
2023/06/13 12:19:48;;;;;;;3.22;1.70;;;26.50;43.40;;;;;;7414111;19;19923;-62
2023/06/13 12:22:36;;;;;;;3.88;2.05;;;26.50;43.00;;;;;;7410715;19;19919;-62
2023/06/13 12:26:00;;;;;;;4.90;1.25;;;26.50;43.00;;;;;;7401299;19;20347;-62
2023/06/13 12:38:41;;;;;;;2.75;1.65;;;26.60;42.80;;;;;;7405146;19;19959;-62
2023/06/13 12:45:34;;;;;;;3.22;1.63;;;26.70;42.90;;;;;;7407016;19;19970;-62
2023/06/13 12:48:34;;;;;;;4.32;2.60;;;26.70;42.30;;;;;;7405740;19;19914;-62
2023/06/13 12:58:46;;;;;;;3.22;1.52;;;26.70;41.80;;;;;;7409287;19;20003;-62
2023/06/13 13:05:14;;;;;;;3.30;1.40;;;26.80;41.80;;;;;;7411448;19;19910;-62
2023/06/13 13:08:41;;;;;;;4.15;1.42;;;26.80;42.60;;;;;;7407214;19;19915;-62
2023/06/13 13:15:15;;;;;;;5.05;2.58;;;26.80;41.00;;;;;;7395466;19;20241;-65
2023/06/13 13:17:47;;;;;;;3.80;1.30;;;26.90;41.10;;;;;;7400123;19;19947;-66
2023/06/13 13:20:27;;;;;;;3.55;1.88;;;27.00;41.20;;;;;;7405592;19;19918;-63
2023/06/13 13:23:50;;;;;;;3.47;1.02;;;27.00;41.40;;;;;;7399869;19;19923;-64
2023/06/13 13:30:12;;;;;;;4.00;1.88;;;27.00;41.30;;;;;;7401064;19;19919;-80
2023/06/13 13:32:42;;;;;;;3.38;1.63;;;27.00;41.60;;;;;;7401702;19;19977;-80
2023/06/13 13:35:11;;;;;;;5.15;2.85;;;27.00;41.70;;;;;;7400270;19;20268;-80
2023/06/13 13:37:40;;;;;;;3.70;1.92;;;27.00;41.50;;;;;;7401041;19;19941;-80
2023/06/13 13:40:10;;;;;;;3.40;1.58;;;27.00;41.30;;;;;;7379946;19;19921;-80
2023/06/13 13:48:41;;;;;;;5.32;1.30;;;27.00;41.60;;;;;;7400090;19;19933;-80
2023/06/13 13:51:11;;;;;;;2.60;1.52;;;27.00;41.80;;;;;;7399187;19;19926;-80
2023/06/13 13:53:40;;;;;;;4.10;1.67;;;27.10;42.50;;;;;;7404380;19;19971;-79
2023/06/13 13:56:09;;;;;;;3.45;1.42;;;27.20;42.00;;;;;;7396079;19;19937;-80
2023/06/13 13:58:38;;;;;;;;;;;27.20;41.90;;;;;;7406895;19;19941;-80
2023/06/13 14:01:10;;;;;;;2.65;1.30;;;27.20;41.60;;;;;;7403909;19;19940;-80
2023/06/13 14:03:40;;;;;;;2.40;1.30;;;27.20;42.00;;;;;;7399019;19;19926;-81
2023/06/13 14:06:09;;;;;;;2.63;1.40;;;27.20;42.00;;;;;;7403341;19;19925;-81
2023/06/13 14:08:39;;;;;;;4.03;1.83;;;27.30;42.10;;;;;;7406719;19;19939;-80
2023/06/13 14:11:08;;;;;;;;;;;27.30;42.00;;;;;;7406971;19;20439;-80
2023/06/13 14:13:37;;;;;;;3.05;1.58;;;27.20;41.40;;;;;;7402039;19;19922;-79
2023/06/13 14:16:09;;;;;;;3.30;1.52;;;27.20;42.00;;;;;;7404867;19;19974;-81
2023/06/13 14:18:38;;;;;;;4.63;1.45;;;27.20;41.90;;;;;;7403929;19;19949;-80
2023/06/13 14:21:07;;;;;;;3.00;1.05;;;27.30;42.10;;;;;;7404591;19;20680;-81